Terminal Aerodrome Forecast
Issued by NWS

Home | Current Version | Previous Version | Text Only | Print | Product List | Glossary On
Versions: 1 2 3 4 5 6 7 8 9 10 11 12 13 14
369
FTAK31 PAJN 160536
TAFASI
TAF
PASI 160536Z 1606/1706 12012KT P6SM -RA BKN035 OVC040
      TEMPO 1608/1610 12015G22KT -RA OVC025
     FM161000 12020G30KT 6SM -RA BR SCT015 OVC025
     FM161500 14018G28KT 4SM RA BR BKN008 OVC015
     FM162000 21012KT 6SM -RA SCT010 OVC020
     FM170000 24010KT P6SM -RA OVC025
     FM170400 24010KT P6SM -RA OVC035=

USA.gov is the U.S. government's official web portal to all federal, state and local government web resources and services.